Terminal Aerodrome Forecast
Issued by NWS

Home | Current Version | Previous Version | Text Only | Print | Product List | Glossary On
Versions: 1 2 3 4 5 6 7 8 9 10 11 12 13 14 15 16 17 18 19 20 21
000
FTUS44 KMOB 291129
TAFBFM
TAF
KBFM 291129Z 2912/3012 33005KT P6SM FEW050 SCT250
     FM291800 14008KT P6SM SCT050 SCT250
      TEMPO 2921/2924 VRB15G25KT 4SM -TSRA BKN050CB
     FM300300 00000KT P6SM SCT250=

USA.gov is the U.S. government's official web portal to all federal, state and local government web resources and services.